sensor_id;sensor_type;location;lat;lon;timestamp;P1;durP1;ratioP1;P2;durP2;ratioP2
58528;SDS011;44322;52.968;5.816;2023-04-24T00:01:40;8.73;;;7.50;;
58528;SDS011;44322;52.968;5.816;2023-04-24T00:04:06;10.02;;;7.80;;
58528;SDS011;44322;52.968;5.816;2023-04-24T00:06:32;9.65;;;7.57;;
58528;SDS011;44322;52.968;5.816;2023-04-24T00:08:59;12.80;;;8.23;;
58528;SDS011;44322;52.968;5.816;2023-04-24T00:11:25;10.18;;;7.97;;
58528;SDS011;44322;52.968;5.816;2023-04-24T00:13:52;8.68;;;7.78;;
58528;SDS011;44322;52.968;5.816;2023-04-24T00:16:17;9.07;;;7.55;;
58528;SDS011;44322;52.968;5.816;2023-04-24T00:18:43;9.70;;;7.65;;
58528;SDS011;44322;52.968;5.816;2023-04-24T00:21:10;11.05;;;8.15;;
58528;SDS011;44322;52.968;5.816;2023-04-24T00:23:36;10.55;;;7.70;;
58528;SDS011;44322;52.968;5.816;2023-04-24T00:26:02;10.57;;;8.73;;
58528;SDS011;44322;52.968;5.816;2023-04-24T00:28:27;9.88;;;8.02;;
58528;SDS011;44322;52.968;5.816;2023-04-24T00:30:53;10.68;;;7.68;;
58528;SDS011;44322;52.968;5.816;2023-04-24T00:33:19;10.02;;;8.68;;
58528;SDS011;44322;52.968;5.816;2023-04-24T00:35:45;11.18;;;8.40;;
58528;SDS011;44322;52.968;5.816;2023-04-24T00:38:11;11.38;;;9.27;;
58528;SDS011;44322;52.968;5.816;2023-04-24T00:40:36;11.18;;;8.30;;
58528;SDS011;44322;52.968;5.816;2023-04-24T00:43:02;9.98;;;8.30;;
58528;SDS011;44322;52.968;5.816;2023-04-24T00:45:28;11.13;;;8.38;;
58528;SDS011;44322;52.968;5.816;2023-04-24T00:47:53;10.18;;;8.10;;
58528;SDS011;44322;52.968;5.816;2023-04-24T00:50:20;9.00;;;7.43;;
58528;SDS011;44322;52.968;5.816;2023-04-24T00:52:46;10.13;;;6.90;;
58528;SDS011;44322;52.968;5.816;2023-04-24T00:55:12;9.98;;;7.35;;
58528;SDS011;44322;52.968;5.816;2023-04-24T00:57:38;10.23;;;7.47;;
58528;SDS011;44322;52.968;5.816;2023-04-24T01:00:04;7.88;;;7.07;;
58528;SDS011;44322;52.968;5.816;2023-04-24T01:02:31;8.07;;;6.93;;
58528;SDS011;44322;52.968;5.816;2023-04-24T01:05:00;7.30;;;6.43;;
58528;SDS011;44322;52.968;5.816;2023-04-24T01:07:26;7.97;;;6.63;;
58528;SDS011;44322;52.968;5.816;2023-04-24T01:09:52;8.05;;;6.63;;
58528;SDS011;44322;52.968;5.816;2023-04-24T01:12:18;9.32;;;6.57;;
58528;SDS011;44322;52.968;5.816;2023-04-24T01:14:44;9.82;;;6.72;;
58528;SDS011;44322;52.968;5.816;2023-04-24T01:17:10;8.45;;;6.70;;
58528;SDS011;44322;52.968;5.816;2023-04-24T01:19:36;8.20;;;6.35;;
58528;SDS011;44322;52.968;5.816;2023-04-24T01:22:02;10.25;;;6.10;;
58528;SDS011;44322;52.968;5.816;2023-04-24T01:24:33;8.32;;;6.47;;
58528;SDS011;44322;52.968;5.816;2023-04-24T01:26:59;7.35;;;5.75;;
58528;SDS011;44322;52.968;5.816;2023-04-24T01:29:26;7.18;;;6.13;;
58528;SDS011;44322;52.968;5.816;2023-04-24T01:31:52;7.70;;;6.30;;
58528;SDS011;44322;52.968;5.816;2023-04-24T01:34:17;7.55;;;6.15;;
58528;SDS011;44322;52.968;5.816;2023-04-24T01:36:43;7.88;;;7.03;;
58528;SDS011;44322;52.968;5.816;2023-04-24T01:39:12;7.38;;;6.40;;
58528;SDS011;44322;52.968;5.816;2023-04-24T01:41:38;7.55;;;6.75;;
58528;SDS011;44322;52.968;5.816;2023-04-24T01:44:03;8.90;;;6.47;;
58528;SDS011;44322;52.968;5.816;2023-04-24T01:46:29;10.02;;;6.72;;
58528;SDS011;44322;52.968;5.816;2023-04-24T01:48:56;11.73;;;7.40;;
58528;SDS011;44322;52.968;5.816;2023-04-24T01:51:24;8.35;;;7.13;;
58528;SDS011;44322;52.968;5.816;2023-04-24T01:53:50;9.65;;;7.35;;
58528;SDS011;44322;52.968;5.816;2023-04-24T01:56:16;9.38;;;6.63;;
58528;SDS011;44322;52.968;5.816;2023-04-24T01:58:42;10.55;;;7.00;;
58528;SDS011;44322;52.968;5.816;2023-04-24T02:01:08;10.30;;;7.25;;
58528;SDS011;44322;52.968;5.816;2023-04-24T02:03:33;10.35;;;7.63;;
58528;SDS011;44322;52.968;5.816;2023-04-24T02:05:59;12.50;;;7.65;;
58528;SDS011;44322;52.968;5.816;2023-04-24T02:08:25;10.00;;;7.80;;
58528;SDS011;44322;52.968;5.816;2023-04-24T02:10:50;10.35;;;7.68;;
58528;SDS011;44322;52.968;5.816;2023-04-24T02:13:16;12.85;;;8.23;;
58528;SDS011;44322;52.968;5.816;2023-04-24T02:15:41;9.95;;;7.60;;
58528;SDS011;44322;52.968;5.816;2023-04-24T02:18:07;10.73;;;8.20;;
58528;SDS011;44322;52.968;5.816;2023-04-24T02:20:33;10.80;;;8.00;;
58528;SDS011;44322;52.968;5.816;2023-04-24T02:23:02;10.02;;;8.13;;
58528;SDS011;44322;52.968;5.816;2023-04-24T02:25:27;9.60;;;7.05;;
58528;SDS011;44322;52.968;5.816;2023-04-24T02:27:54;9.85;;;7.05;;
58528;SDS011;44322;52.968;5.816;2023-04-24T02:30:20;8.90;;;7.47;;
58528;SDS011;44322;52.968;5.816;2023-04-24T02:32:45;10.00;;;7.95;;
58528;SDS011;44322;52.968;5.816;2023-04-24T02:35:11;8.80;;;7.57;;
58528;SDS011;44322;52.968;5.816;2023-04-24T02:37:37;9.98;;;8.18;;
58528;SDS011;44322;52.968;5.816;2023-04-24T02:40:02;12.00;;;8.38;;
58528;SDS011;44322;52.968;5.816;2023-04-24T02:42:28;12.10;;;8.40;;
58528;SDS011;44322;52.968;5.816;2023-04-24T02:44:54;11.20;;;8.80;;
58528;SDS011;44322;52.968;5.816;2023-04-24T02:47:19;10.88;;;8.80;;
58528;SDS011;44322;52.968;5.816;2023-04-24T02:49:45;11.73;;;9.00;;
58528;SDS011;44322;52.968;5.816;2023-04-24T02:52:11;11.45;;;8.95;;
58528;SDS011;44322;52.968;5.816;2023-04-24T02:54:36;5.25;;;4.63;;
58528;SDS011;44322;52.968;5.816;2023-04-24T02:57:02;3.90;;;2.90;;
58528;SDS011;44322;52.968;5.816;2023-04-24T02:59:28;1.88;;;1.70;;
58528;SDS011;44322;52.968;5.816;2023-04-24T03:01:54;1.85;;;1.55;;
58528;SDS011;44322;52.968;5.816;2023-04-24T03:04:20;1.65;;;1.20;;
58528;SDS011;44322;52.968;5.816;2023-04-24T03:06:47;1.40;;;1.30;;
58528;SDS011;44322;52.968;5.816;2023-04-24T03:09:12;1.48;;;1.20;;
58528;SDS011;44322;52.968;5.816;2023-04-24T03:11:38;2.85;;;1.60;;
58528;SDS011;44322;52.968;5.816;2023-04-24T03:14:07;1.55;;;1.45;;
58528;SDS011;44322;52.968;5.816;2023-04-24T03:16:32;2.80;;;1.90;;
58528;SDS011;44322;52.968;5.816;2023-04-24T03:18:58;2.22;;;2.03;;
58528;SDS011;44322;52.968;5.816;2023-04-24T03:21:25;3.00;;;2.70;;
58528;SDS011;44322;52.968;5.816;2023-04-24T03:23:52;3.40;;;3.10;;
58528;SDS011;44322;52.968;5.816;2023-04-24T03:26:17;5.65;;;3.80;;
58528;SDS011;44322;52.968;5.816;2023-04-24T03:28:56;6.13;;;4.60;;
58528;SDS011;44322;52.968;5.816;2023-04-24T03:31:22;6.65;;;5.32;;
58528;SDS011;44322;52.968;5.816;2023-04-24T03:33:48;8.18;;;5.93;;
58528;SDS011;44322;52.968;5.816;2023-04-24T03:36:14;9.90;;;8.20;;
58528;SDS011;44322;52.968;5.816;2023-04-24T03:38:40;11.77;;;8.13;;
58528;SDS011;44322;52.968;5.816;2023-04-24T03:41:29;14.63;;;9.70;;
58528;SDS011;44322;52.968;5.816;2023-04-24T03:44:15;14.52;;;10.20;;
58528;SDS011;44322;52.968;5.816;2023-04-24T03:46:44;17.40;;;12.20;;
58528;SDS011;44322;52.968;5.816;2023-04-24T03:49:10;22.48;;;14.65;;
58528;SDS011;44322;52.968;5.816;2023-04-24T03:51:39;22.75;;;15.50;;
58528;SDS011;44322;52.968;5.816;2023-04-24T03:54:15;23.75;;;15.60;;
58528;SDS011;44322;52.968;5.816;2023-04-24T03:56:41;24.23;;;16.30;;
58528;SDS011;44322;52.968;5.816;2023-04-24T03:59:07;23.88;;;16.80;;
58528;SDS011;44322;52.968;5.816;2023-04-24T04:01:35;26.05;;;16.58;;
58528;SDS011;44322;52.968;5.816;2023-04-24T04:04:15;24.25;;;17.05;;
58528;SDS011;44322;52.968;5.816;2023-04-24T04:06:42;24.33;;;15.88;;
58528;SDS011;44322;52.968;5.816;2023-04-24T04:09:09;19.92;;;14.15;;
58528;SDS011;44322;52.968;5.816;2023-04-24T04:11:36;18.00;;;13.30;;
58528;SDS011;44322;52.968;5.816;2023-04-24T04:14:02;16.95;;;12.30;;
58528;SDS011;44322;52.968;5.816;2023-04-24T04:16:28;18.25;;;11.80;;
58528;SDS011;44322;52.968;5.816;2023-04-24T04:18:59;14.57;;;9.93;;
58528;SDS011;44322;52.968;5.816;2023-04-24T04:21:26;11.90;;;8.85;;
58528;SDS011;44322;52.968;5.816;2023-04-24T04:24:00;12.05;;;9.20;;
58528;SDS011;44322;52.968;5.816;2023-04-24T04:26:32;10.02;;;7.80;;
58528;SDS011;44322;52.968;5.816;2023-04-24T04:29:06;10.48;;;8.15;;
58528;SDS011;44322;52.968;5.816;2023-04-24T04:31:34;10.82;;;7.75;;
58528;SDS011;44322;52.968;5.816;2023-04-24T04:34:05;10.10;;;7.43;;
58528;SDS011;44322;52.968;5.816;2023-04-24T04:36:33;10.80;;;7.60;;
58528;SDS011;44322;52.968;5.816;2023-04-24T04:39:09;8.18;;;6.40;;
58528;SDS011;44322;52.968;5.816;2023-04-24T04:41:44;7.22;;;5.78;;
58528;SDS011;44322;52.968;5.816;2023-04-24T04:46:38;8.00;;;5.05;;
58528;SDS011;44322;52.968;5.816;2023-04-24T04:49:17;5.72;;;4.00;;
58528;SDS011;44322;52.968;5.816;2023-04-24T04:51:44;6.47;;;4.03;;
58528;SDS011;44322;52.968;5.816;2023-04-24T04:54:10;4.45;;;3.10;;
58528;SDS011;44322;52.968;5.816;2023-04-24T04:56:36;3.88;;;3.08;;
58528;SDS011;44322;52.968;5.816;2023-04-24T04:59:02;5.75;;;2.78;;
58528;SDS011;44322;52.968;5.816;2023-04-24T05:01:28;5.93;;;3.40;;
58528;SDS011;44322;52.968;5.816;2023-04-24T05:03:54;6.07;;;3.75;;
58528;SDS011;44322;52.968;5.816;2023-04-24T05:06:20;6.15;;;3.78;;
58528;SDS011;44322;52.968;5.816;2023-04-24T05:08:46;6.50;;;4.00;;
58528;SDS011;44322;52.968;5.816;2023-04-24T05:11:25;5.30;;;4.10;;
58528;SDS011;44322;52.968;5.816;2023-04-24T05:13:51;7.80;;;4.30;;
58528;SDS011;44322;52.968;5.816;2023-04-24T05:16:22;7.10;;;4.57;;
58528;SDS011;44322;52.968;5.816;2023-04-24T05:18:49;6.68;;;4.38;;
58528;SDS011;44322;52.968;5.816;2023-04-24T05:21:19;6.47;;;4.25;;
58528;SDS011;44322;52.968;5.816;2023-04-24T05:23:49;6.85;;;4.22;;
58528;SDS011;44322;52.968;5.816;2023-04-24T05:26:22;7.68;;;4.15;;
58528;SDS011;44322;52.968;5.816;2023-04-24T05:28:48;7.32;;;4.60;;
58528;SDS011;44322;52.968;5.816;2023-04-24T05:31:15;7.90;;;4.50;;
58528;SDS011;44322;52.968;5.816;2023-04-24T05:33:43;9.52;;;5.00;;
58528;SDS011;44322;52.968;5.816;2023-04-24T05:36:09;8.38;;;5.35;;
58528;SDS011;44322;52.968;5.816;2023-04-24T05:38:35;10.45;;;5.95;;
58528;SDS011;44322;52.968;5.816;2023-04-24T05:41:00;10.93;;;5.80;;
58528;SDS011;44322;52.968;5.816;2023-04-24T05:43:26;9.38;;;6.38;;
58528;SDS011;44322;52.968;5.816;2023-04-24T05:45:52;13.75;;;6.55;;
58528;SDS011;44322;52.968;5.816;2023-04-24T05:48:18;12.00;;;7.18;;
58528;SDS011;44322;52.968;5.816;2023-04-24T05:50:44;12.80;;;7.72;;
58528;SDS011;44322;52.968;5.816;2023-04-24T05:53:10;10.20;;;7.25;;
58528;SDS011;44322;52.968;5.816;2023-04-24T05:55:36;11.15;;;6.82;;
58528;SDS011;44322;52.968;5.816;2023-04-24T05:58:03;10.60;;;6.55;;
58528;SDS011;44322;52.968;5.816;2023-04-24T06:00:29;8.98;;;6.05;;
58528;SDS011;44322;52.968;5.816;2023-04-24T06:03:01;9.18;;;6.10;;
58528;SDS011;44322;52.968;5.816;2023-04-24T06:05:29;8.82;;;5.00;;
58528;SDS011;44322;52.968;5.816;2023-04-24T06:07:55;4.72;;;2.90;;
58528;SDS011;44322;52.968;5.816;2023-04-24T06:10:23;2.65;;;2.20;;
58528;SDS011;44322;52.968;5.816;2023-04-24T06:12:49;4.07;;;2.20;;
58528;SDS011;44322;52.968;5.816;2023-04-24T06:15:16;5.07;;;2.08;;
58528;SDS011;44322;52.968;5.816;2023-04-24T06:18:05;4.15;;;2.13;;
58528;SDS011;44322;52.968;5.816;2023-04-24T06:20:31;6.13;;;2.13;;
58528;SDS011;44322;52.968;5.816;2023-04-24T06:22:57;7.70;;;4.30;;
58528;SDS011;44322;52.968;5.816;2023-04-24T06:25:24;3.38;;;2.47;;
58528;SDS011;44322;52.968;5.816;2023-04-24T06:27:51;3.72;;;2.20;;
58528;SDS011;44322;52.968;5.816;2023-04-24T06:30:17;3.22;;;2.15;;
58528;SDS011;44322;52.968;5.816;2023-04-24T06:32:43;5.00;;;2.38;;
58528;SDS011;44322;52.968;5.816;2023-04-24T06:35:09;7.53;;;3.33;;
58528;SDS011;44322;52.968;5.816;2023-04-24T06:37:35;9.18;;;5.00;;
58528;SDS011;44322;52.968;5.816;2023-04-24T06:40:01;11.80;;;6.18;;
58528;SDS011;44322;52.968;5.816;2023-04-24T06:42:26;9.80;;;6.18;;
58528;SDS011;44322;52.968;5.816;2023-04-24T06:44:52;18.42;;;8.68;;
58528;SDS011;44322;52.968;5.816;2023-04-24T06:47:18;16.75;;;8.77;;
58528;SDS011;44322;52.968;5.816;2023-04-24T06:49:43;19.65;;;10.35;;
58528;SDS011;44322;52.968;5.816;2023-04-24T06:52:09;18.55;;;11.48;;
58528;SDS011;44322;52.968;5.816;2023-04-24T06:54:35;26.92;;;13.90;;
58528;SDS011;44322;52.968;5.816;2023-04-24T06:57:00;28.48;;;15.90;;
58528;SDS011;44322;52.968;5.816;2023-04-24T06:59:27;31.60;;;17.45;;
58528;SDS011;44322;52.968;5.816;2023-04-24T07:01:53;31.15;;;18.20;;
58528;SDS011;44322;52.968;5.816;2023-04-24T07:04:19;28.63;;;16.83;;
58528;SDS011;44322;52.968;5.816;2023-04-24T07:06:45;30.38;;;15.73;;
58528;SDS011;44322;52.968;5.816;2023-04-24T07:09:14;29.58;;;15.00;;
58528;SDS011;44322;52.968;5.816;2023-04-24T07:11:41;29.80;;;14.73;;
58528;SDS011;44322;52.968;5.816;2023-04-24T07:14:07;32.60;;;15.77;;
58528;SDS011;44322;52.968;5.816;2023-04-24T07:16:33;31.10;;;15.73;;
58528;SDS011;44322;52.968;5.816;2023-04-24T07:18:58;28.25;;;15.77;;
58528;SDS011;44322;52.968;5.816;2023-04-24T07:21:24;29.98;;;15.90;;
58528;SDS011;44322;52.968;5.816;2023-04-24T07:23:50;28.85;;;16.42;;
58528;SDS011;44322;52.968;5.816;2023-04-24T07:26:16;30.00;;;16.42;;
58528;SDS011;44322;52.968;5.816;2023-04-24T07:28:42;28.15;;;14.93;;
58528;SDS011;44322;52.968;5.816;2023-04-24T07:31:08;27.10;;;15.18;;
58528;SDS011;44322;52.968;5.816;2023-04-24T07:33:33;29.50;;;15.20;;
58528;SDS011;44322;52.968;5.816;2023-04-24T07:35:59;27.67;;;15.70;;
58528;SDS011;44322;52.968;5.816;2023-04-24T07:38:25;24.63;;;14.13;;
58528;SDS011;44322;52.968;5.816;2023-04-24T07:40:51;21.08;;;12.73;;
58528;SDS011;44322;52.968;5.816;2023-04-24T07:43:17;20.67;;;12.73;;
58528;SDS011;44322;52.968;5.816;2023-04-24T07:45:45;22.52;;;11.90;;
58528;SDS011;44322;52.968;5.816;2023-04-24T07:48:10;20.75;;;12.38;;
58528;SDS011;44322;52.968;5.816;2023-04-24T07:50:36;16.15;;;10.23;;
58528;SDS011;44322;52.968;5.816;2023-04-24T07:53:02;18.95;;;10.48;;
58528;SDS011;44322;52.968;5.816;2023-04-24T07:55:27;16.25;;;10.25;;
58528;SDS011;44322;52.968;5.816;2023-04-24T07:57:53;14.93;;;9.23;;
58528;SDS011;44322;52.968;5.816;2023-04-24T08:00:18;13.82;;;8.65;;
58528;SDS011;44322;52.968;5.816;2023-04-24T08:02:45;15.48;;;8.35;;
58528;SDS011;44322;52.968;5.816;2023-04-24T08:05:10;15.00;;;8.98;;
58528;SDS011;44322;52.968;5.816;2023-04-24T08:07:36;16.73;;;8.48;;
58528;SDS011;44322;52.968;5.816;2023-04-24T08:10:02;15.50;;;9.20;;
58528;SDS011;44322;52.968;5.816;2023-04-24T08:12:28;17.55;;;8.65;;
58528;SDS011;44322;52.968;5.816;2023-04-24T08:14:54;14.02;;;9.05;;
58528;SDS011;44322;52.968;5.816;2023-04-24T08:17:20;13.45;;;8.48;;
58528;SDS011;44322;52.968;5.816;2023-04-24T08:19:45;16.77;;;8.48;;
58528;SDS011;44322;52.968;5.816;2023-04-24T08:22:14;14.20;;;7.65;;
58528;SDS011;44322;52.968;5.816;2023-04-24T08:24:40;16.35;;;7.65;;
58528;SDS011;44322;52.968;5.816;2023-04-24T08:27:06;16.65;;;7.57;;
58528;SDS011;44322;52.968;5.816;2023-04-24T08:29:31;12.52;;;7.63;;
58528;SDS011;44322;52.968;5.816;2023-04-24T08:31:57;11.70;;;7.40;;
58528;SDS011;44322;52.968;5.816;2023-04-24T08:34:23;13.27;;;7.55;;
58528;SDS011;44322;52.968;5.816;2023-04-24T08:36:48;10.75;;;7.15;;
58528;SDS011;44322;52.968;5.816;2023-04-24T08:39:14;13.55;;;7.13;;
58528;SDS011;44322;52.968;5.816;2023-04-24T08:41:43;11.60;;;6.88;;
58528;SDS011;44322;52.968;5.816;2023-04-24T08:44:10;12.05;;;6.20;;
58528;SDS011;44322;52.968;5.816;2023-04-24T08:46:36;11.32;;;6.00;;
58528;SDS011;44322;52.968;5.816;2023-04-24T08:49:02;9.63;;;5.55;;
58528;SDS011;44322;52.968;5.816;2023-04-24T08:51:29;8.52;;;5.55;;
58528;SDS011;44322;52.968;5.816;2023-04-24T08:53:55;10.18;;;5.20;;
58528;SDS011;44322;52.968;5.816;2023-04-24T08:56:21;10.05;;;5.10;;
58528;SDS011;44322;52.968;5.816;2023-04-24T08:58:49;9.55;;;4.45;;
58528;SDS011;44322;52.968;5.816;2023-04-24T09:01:19;9.82;;;4.70;;
58528;SDS011;44322;52.968;5.816;2023-04-24T09:03:45;11.90;;;4.75;;
58528;SDS011;44322;52.968;5.816;2023-04-24T09:06:13;10.55;;;5.55;;
58528;SDS011;44322;52.968;5.816;2023-04-24T09:08:40;11.07;;;5.20;;
58528;SDS011;44322;52.968;5.816;2023-04-24T09:11:06;11.70;;;5.38;;
58528;SDS011;44322;52.968;5.816;2023-04-24T09:13:32;8.68;;;5.32;;
58528;SDS011;44322;52.968;5.816;2023-04-24T09:15:58;12.18;;;5.60;;
58528;SDS011;44322;52.968;5.816;2023-04-24T09:18:25;14.33;;;4.80;;
58528;SDS011;44322;52.968;5.816;2023-04-24T09:23:33;11.60;;;4.05;;
58528;SDS011;44322;52.968;5.816;2023-04-24T09:26:00;13.50;;;4.53;;
58528;SDS011;44322;52.968;5.816;2023-04-24T09:28:30;11.85;;;4.32;;
58528;SDS011;44322;52.968;5.816;2023-04-24T09:33:39;13.32;;;3.92;;
58528;SDS011;44322;52.968;5.816;2023-04-24T09:36:05;12.55;;;3.97;;
58528;SDS011;44322;52.968;5.816;2023-04-24T09:38:35;11.93;;;3.60;;
58528;SDS011;44322;52.968;5.816;2023-04-24T09:41:05;11.95;;;4.13;;
58528;SDS011;44322;52.968;5.816;2023-04-24T09:43:32;14.75;;;3.90;;
58528;SDS011;44322;52.968;5.816;2023-04-24T09:45:59;11.13;;;3.25;;
58528;SDS011;44322;52.968;5.816;2023-04-24T09:48:30;10.80;;;3.53;;
58528;SDS011;44322;52.968;5.816;2023-04-24T09:51:03;11.95;;;3.95;;
58528;SDS011;44322;52.968;5.816;2023-04-24T09:53:32;12.02;;;3.50;;
58528;SDS011;44322;52.968;5.816;2023-04-24T09:56:07;11.15;;;3.50;;
58528;SDS011;44322;52.968;5.816;2023-04-24T09:58:34;13.85;;;3.88;;
58528;SDS011;44322;52.968;5.816;2023-04-24T10:01:03;12.77;;;3.67;;
58528;SDS011;44322;52.968;5.816;2023-04-24T10:03:30;14.70;;;3.55;;
58528;SDS011;44322;52.968;5.816;2023-04-24T10:05:59;10.25;;;3.35;;
58528;SDS011;44322;52.968;5.816;2023-04-24T10:08:25;10.93;;;3.47;;
58528;SDS011;44322;52.968;5.816;2023-04-24T10:10:51;8.82;;;2.63;;
58528;SDS011;44322;52.968;5.816;2023-04-24T10:13:17;9.38;;;3.30;;
58528;SDS011;44322;52.968;5.816;2023-04-24T10:15:43;9.43;;;2.65;;
58528;SDS011;44322;52.968;5.816;2023-04-24T10:18:09;15.52;;;2.90;;
58528;SDS011;44322;52.968;5.816;2023-04-24T10:20:36;11.45;;;2.83;;
58528;SDS011;44322;52.968;5.816;2023-04-24T10:23:03;9.55;;;2.80;;
58528;SDS011;44322;52.968;5.816;2023-04-24T10:25:29;11.48;;;3.03;;
58528;SDS011;44322;52.968;5.816;2023-04-24T10:27:56;11.03;;;2.90;;
58528;SDS011;44322;52.968;5.816;2023-04-24T10:30:24;8.65;;;2.60;;
58528;SDS011;44322;52.968;5.816;2023-04-24T10:32:51;6.28;;;2.25;;
58528;SDS011;44322;52.968;5.816;2023-04-24T10:35:17;9.02;;;2.65;;
58528;SDS011;44322;52.968;5.816;2023-04-24T10:37:54;8.35;;;2.80;;
58528;SDS011;44322;52.968;5.816;2023-04-24T10:40:27;7.90;;;2.00;;
58528;SDS011;44322;52.968;5.816;2023-04-24T10:42:55;6.38;;;2.20;;
58528;SDS011;44322;52.968;5.816;2023-04-24T10:45:22;5.15;;;1.95;;
58528;SDS011;44322;52.968;5.816;2023-04-24T10:47:52;6.10;;;2.33;;
58528;SDS011;44322;52.968;5.816;2023-04-24T10:50:30;5.97;;;2.17;;
58528;SDS011;44322;52.968;5.816;2023-04-24T10:53:11;9.00;;;2.60;;
58528;SDS011;44322;52.968;5.816;2023-04-24T10:55:40;9.05;;;1.92;;
58528;SDS011;44322;52.968;5.816;2023-04-24T10:58:06;6.72;;;2.00;;
58528;SDS011;44322;52.968;5.816;2023-04-24T11:00:31;8.30;;;1.73;;
58528;SDS011;44322;52.968;5.816;2023-04-24T11:02:57;10.35;;;2.08;;
58528;SDS011;44322;52.968;5.816;2023-04-24T11:05:24;7.85;;;2.15;;
58528;SDS011;44322;52.968;5.816;2023-04-24T11:08:22;5.68;;;2.10;;
58528;SDS011;44322;52.968;5.816;2023-04-24T11:10:57;7.50;;;1.48;;
58528;SDS011;44322;52.968;5.816;2023-04-24T11:13:24;5.97;;;1.52;;
58528;SDS011;44322;52.968;5.816;2023-04-24T11:24:25;2.92;;;1.20;;
58528;SDS011;44322;52.968;5.816;2023-04-24T11:26:54;5.55;;;2.05;;
58528;SDS011;44322;52.968;5.816;2023-04-24T11:29:22;4.47;;;1.35;;
58528;SDS011;44322;52.968;5.816;2023-04-24T11:31:47;2.95;;;1.40;;
58528;SDS011;44322;52.968;5.816;2023-04-24T11:34:16;3.70;;;1.15;;
58528;SDS011;44322;52.968;5.816;2023-04-24T11:36:43;5.90;;;1.20;;
58528;SDS011;44322;52.968;5.816;2023-04-24T11:39:10;2.70;;;0.70;;
58528;SDS011;44322;52.968;5.816;2023-04-24T11:41:36;4.07;;;0.90;;
58528;SDS011;44322;52.968;5.816;2023-04-24T11:44:02;3.92;;;1.00;;
58528;SDS011;44322;52.968;5.816;2023-04-24T11:46:30;3.17;;;0.90;;
58528;SDS011;44322;52.968;5.816;2023-04-24T11:48:57;3.05;;;0.90;;
58528;SDS011;44322;52.968;5.816;2023-04-24T11:51:23;5.43;;;1.10;;
58528;SDS011;44322;52.968;5.816;2023-04-24T11:53:50;4.70;;;0.90;;
58528;SDS011;44322;52.968;5.816;2023-04-24T11:56:21;3.45;;;0.80;;
58528;SDS011;44322;52.968;5.816;2023-04-24T11:58:51;4.63;;;1.63;;
58528;SDS011;44322;52.968;5.816;2023-04-24T12:01:18;7.32;;;1.50;;
58528;SDS011;44322;52.968;5.816;2023-04-24T12:03:47;4.68;;;1.45;;
58528;SDS011;44322;52.968;5.816;2023-04-24T12:06:13;4.13;;;1.30;;
58528;SDS011;44322;52.968;5.816;2023-04-24T12:08:39;4.68;;;1.10;;
58528;SDS011;44322;52.968;5.816;2023-04-24T12:11:05;7.70;;;1.23;;
58528;SDS011;44322;52.968;5.816;2023-04-24T12:13:34;4.22;;;0.95;;
58528;SDS011;44322;52.968;5.816;2023-04-24T12:16:04;3.53;;;1.08;;
58528;SDS011;44322;52.968;5.816;2023-04-24T12:18:30;5.05;;;1.35;;
58528;SDS011;44322;52.968;5.816;2023-04-24T12:21:14;5.90;;;1.15;;
58528;SDS011;44322;52.968;5.816;2023-04-24T12:23:43;2.72;;;0.90;;
58528;SDS011;44322;52.968;5.816;2023-04-24T12:26:10;3.10;;;0.85;;
58528;SDS011;44322;52.968;5.816;2023-04-24T12:28:36;4.72;;;1.10;;
58528;SDS011;44322;52.968;5.816;2023-04-24T12:31:02;3.75;;;1.00;;
58528;SDS011;44322;52.968;5.816;2023-04-24T12:33:27;2.72;;;0.98;;
58528;SDS011;44322;52.968;5.816;2023-04-24T12:35:58;6.35;;;1.80;;
58528;SDS011;44322;52.968;5.816;2023-04-24T12:38:25;7.00;;;1.55;;
58528;SDS011;44322;52.968;5.816;2023-04-24T12:41:02;5.43;;;1.23;;
58528;SDS011;44322;52.968;5.816;2023-04-24T12:43:29;6.65;;;1.50;;
58528;SDS011;44322;52.968;5.816;2023-04-24T12:45:55;7.53;;;2.28;;
58528;SDS011;44322;52.968;5.816;2023-04-24T12:48:20;5.07;;;2.42;;
58528;SDS011;44322;52.968;5.816;2023-04-24T12:50:47;6.55;;;1.63;;
58528;SDS011;44322;52.968;5.816;2023-04-24T12:53:13;6.82;;;1.67;;
58528;SDS011;44322;52.968;5.816;2023-04-24T12:55:39;3.13;;;1.10;;
58528;SDS011;44322;52.968;5.816;2023-04-24T12:58:05;4.75;;;1.52;;
58528;SDS011;44322;52.968;5.816;2023-04-24T13:00:31;3.42;;;1.30;;
58528;SDS011;44322;52.968;5.816;2023-04-24T13:02:56;6.28;;;1.40;;
58528;SDS011;44322;52.968;5.816;2023-04-24T13:05:22;6.18;;;1.50;;
58528;SDS011;44322;52.968;5.816;2023-04-24T13:07:47;6.15;;;1.30;;
58528;SDS011;44322;52.968;5.816;2023-04-24T13:10:13;7.30;;;2.20;;
58528;SDS011;44322;52.968;5.816;2023-04-24T13:12:39;7.15;;;1.73;;
58528;SDS011;44322;52.968;5.816;2023-04-24T13:15:05;10.88;;;1.95;;
58528;SDS011;44322;52.968;5.816;2023-04-24T13:17:31;5.35;;;1.58;;
58528;SDS011;44322;52.968;5.816;2023-04-24T13:19:58;11.48;;;1.90;;
58528;SDS011;44322;52.968;5.816;2023-04-24T13:22:24;8.75;;;1.60;;
58528;SDS011;44322;52.968;5.816;2023-04-24T13:24:50;7.80;;;1.73;;
58528;SDS011;44322;52.968;5.816;2023-04-24T13:27:15;7.85;;;1.73;;
58528;SDS011;44322;52.968;5.816;2023-04-24T13:29:41;6.32;;;1.80;;
58528;SDS011;44322;52.968;5.816;2023-04-24T13:32:07;7.97;;;1.85;;
58528;SDS011;44322;52.968;5.816;2023-04-24T13:34:33;9.10;;;2.38;;
58528;SDS011;44322;52.968;5.816;2023-04-24T13:37:00;8.27;;;2.17;;
58528;SDS011;44322;52.968;5.816;2023-04-24T13:39:26;10.50;;;2.47;;
58528;SDS011;44322;52.968;5.816;2023-04-24T13:41:54;12.95;;;2.50;;
58528;SDS011;44322;52.968;5.816;2023-04-24T13:44:21;12.40;;;2.65;;
58528;SDS011;44322;52.968;5.816;2023-04-24T13:46:48;10.70;;;2.35;;
58528;SDS011;44322;52.968;5.816;2023-04-24T13:49:15;9.10;;;2.35;;
58528;SDS011;44322;52.968;5.816;2023-04-24T13:51:41;6.72;;;2.10;;
58528;SDS011;44322;52.968;5.816;2023-04-24T13:54:07;9.48;;;1.85;;
58528;SDS011;44322;52.968;5.816;2023-04-24T13:56:32;7.85;;;1.70;;
58528;SDS011;44322;52.968;5.816;2023-04-24T13:58:58;5.50;;;1.70;;
58528;SDS011;44322;52.968;5.816;2023-04-24T14:01:24;9.48;;;2.20;;
58528;SDS011;44322;52.968;5.816;2023-04-24T14:03:50;9.40;;;2.22;;
58528;SDS011;44322;52.968;5.816;2023-04-24T14:06:17;8.48;;;2.53;;
58528;SDS011;44322;52.968;5.816;2023-04-24T14:08:43;10.55;;;2.72;;
58528;SDS011;44322;52.968;5.816;2023-04-24T14:11:08;10.90;;;2.67;;
58528;SDS011;44322;52.968;5.816;2023-04-24T14:13:35;10.43;;;2.40;;
58528;SDS011;44322;52.968;5.816;2023-04-24T14:16:02;12.10;;;2.78;;
58528;SDS011;44322;52.968;5.816;2023-04-24T14:18:28;13.85;;;3.13;;
58528;SDS011;44322;52.968;5.816;2023-04-24T14:20:54;9.70;;;3.08;;
58528;SDS011;44322;52.968;5.816;2023-04-24T14:23:19;13.10;;;3.38;;
58528;SDS011;44322;52.968;5.816;2023-04-24T14:25:45;13.15;;;3.22;;
58528;SDS011;44322;52.968;5.816;2023-04-24T14:28:13;10.38;;;3.53;;
58528;SDS011;44322;52.968;5.816;2023-04-24T14:30:39;12.32;;;3.10;;
58528;SDS011;44322;52.968;5.816;2023-04-24T14:33:05;10.23;;;3.33;;
58528;SDS011;44322;52.968;5.816;2023-04-24T14:35:31;9.52;;;2.85;;
58528;SDS011;44322;52.968;5.816;2023-04-24T14:37:59;13.20;;;3.42;;
58528;SDS011;44322;52.968;5.816;2023-04-24T14:40:25;14.27;;;3.63;;
58528;SDS011;44322;52.968;5.816;2023-04-24T14:42:50;13.20;;;3.55;;
58528;SDS011;44322;52.968;5.816;2023-04-24T14:45:16;9.35;;;2.45;;
58528;SDS011;44322;52.968;5.816;2023-04-24T14:47:42;8.05;;;2.63;;
58528;SDS011;44322;52.968;5.816;2023-04-24T14:50:08;10.60;;;2.78;;
58528;SDS011;44322;52.968;5.816;2023-04-24T14:52:33;11.30;;;2.92;;
58528;SDS011;44322;52.968;5.816;2023-04-24T14:55:00;10.88;;;3.50;;
58528;SDS011;44322;52.968;5.816;2023-04-24T14:57:25;17.27;;;3.58;;